Houston, Texas
Traffic Map
Current Weather Conditions
Houston, Texas
Clear
Clear
28°
Feels Like: 32°
Wind Chill: 28° Ceiling: Unl
Heat Index: 32° Visibility: 7mi
Dew Point: 24° Wind: 0mph
Humidity: 79% Direction: ° ()
Pressure: 30.06in Gusts: 0mph
Raw Report DataKMCJ 221335Z AUTO 00000KT 7SM CLR 28/24 A3006 RMK AO1
Traffic Incident Summary
Active as of:
Severity:
Category:
InformationThere was an issue retrieving the traffic information for this location. Please try a different location or try again shortly.
Advertisements
Track Severe Weather on mobile